Time;durP1;ratioP1;P1;durP2;ratioP2;P2;SDS_P1;SDS_P2;PMS_P1;PMS_P2;Temp;Humidity;BMP_temperature;BMP_pressure;BME280_temperature;BME280_humidity;BME280_pressure;Samples;Min_cycle;Max_cycle;Signal;HPM_P1;HPM_P2
2022/12/27 06:00:17;;;;;;;3.27;2.00;;;4.70;97.20;;;;;;1720445;28;20185;-70
2022/12/27 06:01:10;;;;;;;3.38;2.38;;;4.70;97.20;;;;;;1720657;28;20213;-70
2022/12/27 06:02:01;;;;;;;3.35;1.98;;;4.70;97.20;;;;;;1720355;28;20197;-70
2022/12/27 06:02:52;;;;;;;2.55;1.70;;;4.70;97.20;;;;;;1718845;28;20209;-70
2022/12/27 06:03:44;;;;;;;2.90;2.60;;;4.70;97.20;;;;;;1707204;28;20206;-70
2022/12/27 06:04:35;;;;;;;3.28;2.88;;;4.70;97.20;;;;;;1707038;28;20202;-70
2022/12/27 06:05:27;;;;;;;2.60;2.10;;;4.70;97.20;;;;;;1707184;28;20212;-70
2022/12/27 06:06:17;;;;;;;3.65;2.92;;;4.70;97.20;;;;;;1707108;28;20206;-70
2022/12/27 06:07:10;;;;;;;3.60;2.80;;;4.70;97.20;;;;;;1710072;28;20213;-70
2022/12/27 06:08:01;;;;;;;5.80;3.20;;;4.70;97.20;;;;;;1713617;28;20590;-70
2022/12/27 06:08:52;;;;;;;3.47;3.13;;;4.70;97.20;;;;;;1713659;28;20600;-70
2022/12/27 06:09:43;;;;;;;4.30;3.90;;;4.70;97.20;;;;;;1713719;28;20202;-70
2022/12/27 06:10:36;;;;;;;4.33;3.93;;;4.70;97.20;;;;;;1713663;28;20236;-70
2022/12/27 06:11:26;;;;;;;6.00;4.57;;;4.70;97.20;;;;;;1713782;28;20206;-70
2022/12/27 06:12:17;;;;;;;7.07;4.07;;;4.70;97.20;;;;;;1713737;28;20198;-70
2022/12/27 06:13:09;;;;;;;4.17;3.77;;;4.70;97.20;;;;;;1713691;28;20264;-70
2022/12/27 06:14:00;;;;;;;4.22;3.83;;;4.70;97.20;;;;;;1713584;28;20214;-70
2022/12/27 06:14:51;;;;;;;4.47;3.70;;;4.70;97.20;;;;;;1719596;28;20276;-70
2022/12/27 06:15:43;;;;;;;4.68;4.25;;;4.70;97.20;;;;;;1719987;28;20197;-70
2022/12/27 06:16:36;;;;;;;3.60;3.30;;;4.70;97.20;;;;;;1720358;28;20204;-70
2022/12/27 06:17:27;;;;;;;3.78;3.38;;;4.70;97.20;;;;;;1720426;28;20201;-70
2022/12/27 06:18:19;;;;;;;6.10;3.20;;;4.70;97.20;;;;;;1720210;28;20197;-70
2022/12/27 06:19:09;;;;;;;3.35;2.92;;;4.70;97.20;;;;;;1720407;28;20198;-70
2022/12/27 06:20:01;;;;;;;3.67;3.30;;;4.70;97.20;;;;;;1720451;28;20198;-70
2022/12/27 06:20:52;;;;;;;4.22;3.28;;;4.70;97.20;;;;;;1720425;28;20699;-70
2022/12/27 06:21:44;;;;;;;4.47;4.07;;;4.70;97.20;;;;;;1720433;28;20581;-70
2022/12/27 06:22:35;;;;;;;4.70;3.85;;;4.70;97.20;;;;;;1720307;28;20216;-70
2022/12/27 06:23:26;;;;;;;5.50;4.30;;;4.70;97.20;;;;;;1720483;28;20207;-70
2022/12/27 06:24:17;;;;;;;5.70;4.15;;;4.70;97.20;;;;;;1720447;28;20673;-70
2022/12/27 06:25:09;;;;;;;5.10;4.27;;;4.70;97.20;;;;;;1720465;28;20561;-70
2022/12/27 06:26:03;;;;;;;5.88;4.20;;;4.70;97.20;;;;;;1720273;28;20209;-70
2022/12/27 06:26:55;;;;;;;5.78;5.00;;;4.70;97.20;;;;;;1719655;28;20209;-70
2022/12/27 06:27:46;;;;;;;6.20;4.60;;;4.70;97.20;;;;;;1721431;28;20212;-72
2022/12/27 06:28:38;;;;;;;3.80;3.37;;;4.70;97.20;;;;;;1718843;28;20912;-70
2022/12/27 06:29:28;;;;;;;4.15;3.50;;;4.70;97.20;;;;;;1720802;28;20197;-70
2022/12/27 06:30:20;;;;;;;3.80;2.93;;;4.70;97.20;;;;;;1721164;28;20193;-70
2022/12/27 06:31:12;;;;;;;4.47;3.00;;;4.60;97.20;;;;;;1721520;28;20196;-70
2022/12/27 06:32:04;;;;;;;5.05;2.80;;;4.60;97.20;;;;;;1721515;28;20267;-70
2022/12/27 06:32:55;;;;;;;3.10;2.03;;;4.60;97.20;;;;;;1721606;28;20208;-72
2022/12/27 06:33:46;;;;;;;5.17;1.80;;;4.60;97.20;;;;;;1721725;28;20211;-72
2022/12/27 06:34:38;;;;;;;3.15;1.90;;;4.60;97.20;;;;;;1721717;28;20209;-72
2022/12/27 06:35:29;;;;;;;3.28;1.80;;;4.60;97.20;;;;;;1721689;28;20212;-72
2022/12/27 06:36:23;;;;;;;2.60;2.10;;;4.60;97.20;;;;;;1721687;28;20203;-73
2022/12/27 06:37:13;;;;;;;2.15;1.70;;;4.60;97.20;;;;;;1721040;28;20869;-69
2022/12/27 06:38:05;;;;;;;3.90;2.50;;;4.60;97.20;;;;;;1721526;28;20578;-70
2022/12/27 06:38:56;;;;;;;3.95;1.90;;;4.60;97.20;;;;;;1721579;28;20201;-70
2022/12/27 06:39:48;;;;;;;1.60;1.50;;;4.50;97.20;;;;;;1721595;28;20201;-70
2022/12/27 06:40:39;;;;;;;2.60;2.40;;;4.60;97.20;;;;;;1721448;28;20221;-70
2022/12/27 06:41:31;;;;;;;2.77;2.00;;;4.50;97.20;;;;;;1721702;28;20221;-70
2022/12/27 06:42:21;;;;;;;3.22;1.60;;;4.50;97.20;;;;;;1721540;28;20197;-70
2022/12/27 06:43:13;;;;;;;2.53;2.30;;;4.50;97.20;;;;;;1721672;28;20670;-70
2022/12/27 06:44:04;;;;;;;2.10;1.90;;;4.50;97.20;;;;;;1721644;28;20201;-70
2022/12/27 06:44:56;;;;;;;2.87;2.10;;;4.50;97.20;;;;;;1721589;28;20205;-70
2022/12/27 06:45:55;;;;;;;2.47;2.20;;;4.50;97.20;;;;;;1719967;28;20451;-70
2022/12/27 06:46:48;;;;;;;7.28;2.30;;;4.50;97.20;;;;;;1720463;28;20254;-70
2022/12/27 06:47:38;;;;;;;3.67;2.17;;;4.50;97.20;;;;;;1721576;28;20694;-70
2022/12/27 06:48:31;;;;;;;3.20;2.30;;;4.50;97.20;;;;;;1721583;28;20677;-70
2022/12/27 06:49:21;;;;;;;2.10;2.00;;;4.50;97.20;;;;;;1721543;28;20651;-72
2022/12/27 06:50:13;;;;;;;3.03;2.23;;;4.50;97.20;;;;;;1721516;28;20568;-70
2022/12/27 06:51:04;;;;;;;2.63;2.20;;;4.50;97.20;;;;;;1721760;28;20209;-70
2022/12/27 06:51:56;;;;;;;2.25;2.05;;;4.40;97.20;;;;;;1721551;28;20205;-70
2022/12/27 06:52:47;;;;;;;2.38;2.17;;;4.40;97.20;;;;;;1721617;28;20201;-70
2022/12/27 06:53:39;;;;;;;2.77;2.20;;;4.40;97.20;;;;;;1721476;28;20205;-70
2022/12/27 06:54:30;;;;;;;1.98;1.80;;;4.40;97.20;;;;;;1721542;28;20592;-70
2022/12/27 06:55:21;;;;;;;2.43;2.20;;;4.40;97.20;;;;;;1721439;28;20568;-70
2022/12/27 06:56:15;;;;;;;2.83;2.20;;;4.40;97.20;;;;;;1721559;28;20582;-70
2022/12/27 06:57:07;;;;;;;2.60;1.90;;;4.40;97.20;;;;;;1720908;28;20244;-70
2022/12/27 06:57:57;;;;;;;2.38;1.73;;;4.40;97.20;;;;;;1721401;28;20205;-70
2022/12/27 06:58:50;;;;;;;1.80;1.70;;;4.40;97.20;;;;;;1721527;28;20205;-70
2022/12/27 06:59:41;;;;;;;2.17;1.85;;;4.30;97.20;;;;;;1721421;28;20212;-70
2022/12/27 07:00:33;;;;;;;2.30;1.73;;;4.30;97.20;;;;;;1721473;28;20229;-70
2022/12/27 07:01:25;;;;;;;3.55;1.90;;;4.30;97.20;;;;;;1721521;28;20204;-70
2022/12/27 07:02:19;;;;;;;2.13;1.40;;;4.30;97.20;;;;;;1719712;28;20504;-70
2022/12/27 07:03:10;;;;;;;1.60;1.50;;;4.30;97.20;;;;;;1721615;28;20201;-70
2022/12/27 07:04:02;;;;;;;2.23;1.60;;;4.30;97.20;;;;;;1721165;28;20729;-70
2022/12/27 07:04:52;;;;;;;5.10;1.63;;;4.30;97.20;;;;;;1721458;28;20209;-70
2022/12/27 07:05:44;;;;;;;2.87;1.67;;;4.30;97.20;;;;;;1721389;28;20237;-70
2022/12/27 07:06:36;;;;;;;2.70;1.75;;;4.30;97.20;;;;;;1721437;28;20293;-71
2022/12/27 07:07:28;;;;;;;6.22;2.85;;;4.30;97.20;;;;;;1721519;28;20289;-70
2022/12/27 07:08:18;;;;;;;3.47;2.97;;;4.30;97.20;;;;;;1721236;28;20225;-70
2022/12/27 07:09:10;;;;;;;4.10;3.00;;;4.30;97.20;;;;;;1721345;28;20233;-70
2022/12/27 07:10:02;;;;;;;3.83;3.10;;;4.30;97.20;;;;;;1721366;28;20444;-70
2022/12/27 07:10:53;;;;;;;4.50;4.10;;;4.30;97.20;;;;;;1721375;28;20663;-70
2022/12/27 07:11:44;;;;;;;4.47;3.88;;;4.30;97.20;;;;;;1721356;28;20212;-70
2022/12/27 07:12:36;;;;;;;3.80;3.40;;;4.30;97.20;;;;;;1721446;28;20223;-70
2022/12/27 07:13:27;;;;;;;2.58;2.35;;;4.30;97.20;;;;;;1721435;28;20446;-70
2022/12/27 07:14:18;;;;;;;2.97;2.33;;;4.30;97.20;;;;;;1721337;28;20219;-70
2022/12/27 07:15:09;;;;;;;3.63;2.40;;;4.30;97.20;;;;;;1721457;28;20205;-70
2022/12/27 07:16:02;;;;;;;3.88;2.45;;;4.30;97.20;;;;;;1721301;28;20225;-70
2022/12/27 07:16:54;;;;;;;2.75;2.20;;;4.30;97.20;;;;;;1720615;28;20216;-70
2022/12/27 07:17:46;;;;;;;2.75;2.17;;;4.30;97.20;;;;;;1721313;28;20201;-70
2022/12/27 07:18:37;;;;;;;3.05;2.08;;;4.30;97.20;;;;;;1719658;28;20263;-71
2022/12/27 07:19:29;;;;;;;1.60;1.50;;;4.30;97.20;;;;;;1714710;28;20623;-70
2022/12/27 07:20:20;;;;;;;2.22;1.85;;;4.30;97.20;;;;;;1714547;28;20268;-70
2022/12/27 07:21:13;;;;;;;2.30;1.90;;;4.30;97.20;;;;;;1714807;28;20216;-70
2022/12/27 07:22:04;;;;;;;2.85;1.63;;;4.30;97.20;;;;;;1715396;28;20449;-70
2022/12/27 07:22:57;;;;;;;3.00;1.80;;;4.40;97.20;;;;;;1721349;28;20201;-70
2022/12/27 07:23:49;;;;;;;2.45;1.30;;;4.40;97.20;;;;;;1721535;28;20259;-70
2022/12/27 07:24:41;;;;;;;2.20;1.50;;;4.40;97.20;;;;;;1721224;28;20205;-70
2022/12/27 07:25:32;;;;;;;2.88;1.67;;;4.40;97.20;;;;;;1721355;28;20221;-70
2022/12/27 07:26:27;;;;;;;2.53;1.90;;;4.40;97.20;;;;;;1721387;28;20213;-70
2022/12/27 07:27:18;;;;;;;1.70;1.60;;;4.50;97.20;;;;;;1720587;28;20287;-70
2022/12/27 07:28:09;;;;;;;3.37;1.77;;;4.40;97.20;;;;;;1721215;28;20209;-70
2022/12/27 07:29:01;;;;;;;2.20;1.88;;;4.50;97.20;;;;;;1721070;28;20275;-70
2022/12/27 07:29:52;;;;;;;2.65;1.77;;;4.50;97.20;;;;;;1720983;28;20201;-70
2022/12/27 07:30:43;;;;;;;2.83;2.10;;;4.50;97.20;;;;;;1721035;28;20248;-70
2022/12/27 07:31:35;;;;;;;3.00;1.93;;;4.50;97.20;;;;;;1721286;28;20208;-70
2022/12/27 07:32:25;;;;;;;3.65;2.40;;;4.50;97.20;;;;;;1721379;28;20205;-70
2022/12/27 07:33:18;;;;;;;2.57;1.80;;;4.60;97.20;;;;;;1721210;28;20679;-71
2022/12/27 07:34:09;;;;;;;2.05;1.70;;;4.60;97.20;;;;;;1721398;28;20224;-70
2022/12/27 07:35:01;;;;;;;2.47;2.27;;;4.60;97.20;;;;;;1721219;28;20199;-70
2022/12/27 07:35:56;;;;;;;2.25;2.05;;;4.60;97.20;;;;;;1721369;28;21018;-71
2022/12/27 07:36:48;;;;;;;2.60;1.98;;;4.60;97.20;;;;;;1716220;28;20560;-71
2022/12/27 07:37:39;;;;;;;2.72;1.80;;;4.60;97.20;;;;;;1714566;28;20206;-70
2022/12/27 07:38:31;;;;;;;3.27;2.03;;;4.60;97.20;;;;;;1714064;28;20668;-70
2022/12/27 07:39:21;;;;;;;3.90;2.00;;;4.60;97.20;;;;;;1714562;28;20204;-70
2022/12/27 07:40:13;;;;;;;2.00;1.83;;;4.70;97.20;;;;;;1714617;28;20205;-70
2022/12/27 07:41:04;;;;;;;2.65;2.10;;;4.70;97.20;;;;;;1714536;28;20202;-70
2022/12/27 07:41:56;;;;;;;7.50;2.00;;;4.70;97.20;;;;;;1714483;28;20206;-70
2022/12/27 07:42:47;;;;;;;3.40;1.95;;;4.70;97.20;;;;;;1714475;28;20202;-70
2022/12/27 07:43:39;;;;;;;2.03;1.83;;;4.70;97.20;;;;;;1714442;28;20206;-70
2022/12/27 07:44:30;;;;;;;2.08;1.83;;;4.70;97.20;;;;;;1714653;28;20453;-70
2022/12/27 07:45:21;;;;;;;2.97;1.90;;;4.70;97.20;;;;;;1714465;28;20280;-70
2022/12/27 07:46:14;;;;;;;2.25;2.05;;;4.80;97.20;;;;;;1714468;28;20217;-70
2022/12/27 07:47:06;;;;;;;2.40;2.10;;;4.80;97.20;;;;;;1713686;28;20783;-70
2022/12/27 07:47:57;;;;;;;2.85;2.03;;;4.80;97.20;;;;;;1714424;28;20202;-70
2022/12/27 07:48:52;;;;;;;2.10;1.90;;;4.80;97.20;;;;;;1714385;28;20209;-70
2022/12/27 07:49:43;;;;;;;1.70;1.60;;;4.80;97.20;;;;;;1714502;28;20249;-70
2022/12/27 07:50:35;;;;;;;4.25;1.90;;;4.80;97.20;;;;;;1714360;28;20222;-70
2022/12/27 07:51:26;;;;;;;2.35;1.60;;;4.90;97.20;;;;;;1720611;28;20217;-70
2022/12/27 07:52:18;;;;;;;1.88;1.75;;;4.90;97.20;;;;;;1721185;28;20201;-70
2022/12/27 07:53:09;;;;;;;4.00;1.30;;;4.90;97.20;;;;;;1721235;28;20213;-70
2022/12/27 07:54:00;;;;;;;2.20;1.80;;;5.00;97.20;;;;;;1721142;28;20213;-70
2022/12/27 07:54:51;;;;;;;5.05;1.90;;;5.00;97.20;;;;;;1721209;28;20204;-70
2022/12/27 07:55:42;;;;;;;2.53;1.70;;;5.00;97.20;;;;;;1721044;28;20205;-70
2022/12/27 07:56:34;;;;;;;3.53;1.57;;;5.00;97.20;;;;;;1721083;28;20666;-70
2022/12/27 07:57:24;;;;;;;2.05;1.80;;;5.10;97.20;;;;;;1720466;28;20205;-70
2022/12/27 07:58:16;;;;;;;3.77;1.63;;;5.10;97.20;;;;;;1721014;28;20201;-70
2022/12/27 07:59:12;;;;;;;1.73;1.63;;;5.10;97.20;;;;;;1721192;28;20201;-70
2022/12/27 08:00:04;;;;;;;3.97;2.15;;;5.10;97.20;;;;;;1721064;28;20217;-70
2022/12/27 08:00:56;;;;;;;2.45;1.73;;;5.10;97.20;;;;;;1720944;28;20702;-70
2022/12/27 08:02:05;;;;;;;2.58;1.90;;;5.10;97.20;;;;;;1721204;28;20205;-70
2022/12/27 08:02:56;;;;;;;2.75;1.90;;;5.20;97.20;;;;;;1721090;28;20220;-70
2022/12/27 08:03:49;;;;;;;2.70;1.95;;;5.20;97.20;;;;;;1721097;28;20593;-70
2022/12/27 08:04:40;;;;;;;3.05;1.80;;;5.20;97.20;;;;;;1721020;28;20208;-70
2022/12/27 08:05:31;;;;;;;3.50;1.95;;;5.30;97.20;;;;;;1721268;28;20224;-70
2022/12/27 08:06:27;;;;;;;2.03;1.57;;;5.30;97.20;;;;;;1714627;28;20198;-70
2022/12/27 08:07:18;;;;;;;6.07;1.92;;;5.30;97.20;;;;;;1713677;28;20213;-70
2022/12/27 08:08:11;;;;;;;4.18;2.00;;;5.40;97.20;;;;;;1714344;28;20213;-70
2022/12/27 08:09:04;;;;;;;3.28;1.98;;;5.40;97.20;;;;;;1714269;28;20209;-70
2022/12/27 08:09:56;;;;;;;3.40;2.20;;;5.40;97.20;;;;;;1714204;28;20710;-70
2022/12/27 08:10:47;;;;;;;2.25;1.63;;;5.40;97.20;;;;;;1714202;28;20261;-70
2022/12/27 08:11:38;;;;;;;2.07;1.73;;;5.50;97.20;;;;;;1714369;28;20209;-70
2022/12/27 08:12:29;;;;;;;7.45;2.33;;;5.50;97.20;;;;;;1714330;28;20210;-70
2022/12/27 08:13:21;;;;;;;1.57;1.47;;;5.50;97.20;;;;;;1714269;28;20197;-70
2022/12/27 08:14:12;;;;;;;3.97;2.10;;;5.50;97.20;;;;;;1714404;28;20217;-70
2022/12/27 08:15:04;;;;;;;2.53;1.60;;;5.60;97.20;;;;;;1714251;28;20210;-70
2022/12/27 08:15:55;;;;;;;5.40;2.05;;;5.60;97.20;;;;;;1714433;28;20577;-70
2022/12/27 08:16:47;;;;;;;4.07;1.73;;;5.60;97.20;;;;;;1713496;28;20312;-70
2022/12/27 08:17:38;;;;;;;3.75;2.08;;;5.70;97.20;;;;;;1714176;28;20209;-70
2022/12/27 08:18:29;;;;;;;2.10;1.90;;;5.80;97.20;;;;;;1714173;28;20288;-70
2022/12/27 08:19:22;;;;;;;2.42;1.70;;;5.80;97.20;;;;;;1714223;28;20217;-70
2022/12/27 08:20:14;;;;;;;3.33;2.17;;;5.80;97.20;;;;;;1715889;28;20213;-71
2022/12/27 08:21:05;;;;;;;1.90;1.77;;;5.90;97.20;;;;;;1720999;28;20216;-71
2022/12/27 08:21:57;;;;;;;4.07;1.80;;;6.00;97.20;;;;;;1720632;28;20205;-71
2022/12/27 08:22:47;;;;;;;3.58;1.77;;;6.00;97.20;;;;;;1721027;28;20461;-71
2022/12/27 08:23:39;;;;;;;4.90;1.90;;;6.10;97.20;;;;;;1720936;28;20673;-71
2022/12/27 08:24:30;;;;;;;4.45;1.90;;;6.20;97.20;;;;;;1721082;28;20205;-70
2022/12/27 08:25:22;;;;;;;4.63;1.88;;;6.30;97.20;;;;;;1720869;28;20629;-71
2022/12/27 08:26:12;;;;;;;1.77;1.63;;;6.30;97.20;;;;;;1720968;28;20205;-71
2022/12/27 08:27:04;;;;;;;1.97;1.50;;;6.40;97.20;;;;;;1720310;28;20205;-71
2022/12/27 08:28:02;;;;;;;2.63;1.70;;;6.50;97.20;;;;;;1720774;28;20216;-71
2022/12/27 08:28:54;;;;;;;3.25;1.83;;;6.60;97.20;;;;;;1720924;28;20196;-70
2022/12/27 08:29:44;;;;;;;6.18;2.00;;;6.70;97.20;;;;;;1720771;28;20655;-70
2022/12/27 08:30:37;;;;;;;3.13;2.20;;;6.80;97.20;;;;;;1720769;28;20602;-70
2022/12/27 08:31:27;;;;;;;3.60;2.20;;;6.90;97.20;;;;;;1720883;28;20320;-71
2022/12/27 08:32:19;;;;;;;2.40;1.70;;;7.00;97.20;;;;;;1720894;28;20287;-71
2022/12/27 08:33:10;;;;;;;5.18;2.10;;;7.20;97.20;;;;;;1720888;28;20201;-71
2022/12/27 08:34:03;;;;;;;3.47;1.95;;;7.50;97.20;;;;;;1720875;28;20239;-71
2022/12/27 08:34:55;;;;;;;1.77;1.52;;;8.00;97.20;;;;;;1720830;28;20201;-71
2022/12/27 08:35:46;;;;;;;2.45;1.60;;;8.80;97.20;;;;;;1720897;28;20210;-71
2022/12/27 08:36:37;;;;;;;4.22;1.77;;;9.80;97.20;;;;;;1718372;28;20205;-71
2022/12/27 08:37:29;;;;;;;2.30;1.87;;;11.00;97.20;;;;;;1720590;28;20197;-70
2022/12/27 08:38:20;;;;;;;3.58;2.10;;;12.10;97.20;;;;;;1720441;28;20574;-71
2022/12/27 08:39:11;;;;;;;4.35;1.85;;;13.10;97.20;;;;;;1720909;28;20212;-70
2022/12/27 08:40:03;;;;;;;3.97;2.17;;;14.10;97.20;;;;;;1720823;28;20197;-70
2022/12/27 08:40:54;;;;;;;5.40;2.40;;;15.10;97.20;;;;;;1720779;28;20221;-70
2022/12/27 08:41:45;;;;;;;4.35;2.25;;;16.10;97.20;;;;;;1720828;28;20209;-70
2022/12/27 08:42:37;;;;;;;4.05;2.13;;;17.10;97.20;;;;;;1720756;28;20232;-71
2022/12/27 08:43:28;;;;;;;3.85;2.10;;;17.90;97.20;;;;;;1720942;28;20212;-71
2022/12/27 08:44:20;;;;;;;5.22;1.77;;;18.70;97.20;;;;;;1720713;28;20678;-71
2022/12/27 08:45:11;;;;;;;2.17;1.83;;;19.30;97.20;;;;;;1720851;28;20205;-71
2022/12/27 08:46:04;;;;;;;1.77;1.63;;;19.90;97.20;;;;;;1720827;28;20671;-71
2022/12/27 08:46:55;;;;;;;3.50;1.80;;;20.40;97.20;;;;;;1720054;28;20667;-71
2022/12/27 08:47:46;;;;;;;3.97;1.90;;;21.00;97.20;;;;;;1720758;28;20563;-71
2022/12/27 08:48:37;;;;;;;2.42;1.55;;;21.50;97.20;;;;;;1720771;28;20212;-71
2022/12/27 08:49:29;;;;;;;3.37;1.60;;;21.90;97.20;;;;;;1720681;28;20205;-71
2022/12/27 08:50:21;;;;;;;1.90;1.42;;;22.20;97.20;;;;;;1720039;28;20201;-71
2022/12/27 08:51:12;;;;;;;3.63;1.60;;;22.50;97.20;;;;;;1720912;28;20209;-71
2022/12/27 08:52:04;;;;;;;4.32;1.70;;;22.60;97.20;;;;;;1720693;28;20201;-71
2022/12/27 08:53:00;;;;;;;2.80;1.70;;;22.60;97.20;;;;;;1720380;28;20201;-71
2022/12/27 08:53:51;;;;;;;3.35;1.80;;;22.40;97.20;;;;;;1707397;28;20207;-71
2022/12/27 08:54:43;;;;;;;4.50;1.87;;;21.90;97.20;;;;;;1707235;28;20665;-72
2022/12/27 08:55:33;;;;;;;3.20;1.70;;;21.50;97.20;;;;;;1707437;28;20210;-71
2022/12/27 08:56:25;;;;;;;4.27;2.00;;;20.90;97.20;;;;;;1707341;28;20198;-71
2022/12/27 08:57:16;;;;;;;5.28;2.67;;;20.50;97.20;;;;;;1706574;28;20439;-71
2022/12/27 08:58:08;;;;;;;3.30;2.20;;;20.20;97.20;;;;;;1707327;28;20209;-71
2022/12/27 08:58:59;;;;;;;3.60;1.60;;;19.90;97.20;;;;;;1707277;28;20214;-72
2022/12/27 08:59:50;;;;;;;3.67;1.87;;;19.40;97.20;;;;;;1707343;28;20201;-72
2022/12/27 09:00:41;;;;;;;2.40;1.70;;;19.10;97.20;;;;;;1707189;28;20979;-71
2022/12/27 09:01:33;;;;;;;2.80;1.40;;;18.70;97.20;;;;;;1707511;28;20559;-71
2022/12/27 09:02:23;;;;;;;2.53;1.60;;;18.50;97.20;;;;;;1707278;28;20447;-71
2022/12/27 09:03:18;;;;;;;1.60;1.50;;;18.40;97.20;;;;;;1707471;28;20206;-71
2022/12/27 09:04:09;;;;;;;2.42;1.88;;;18.40;97.20;;;;;;1707305;28;20213;-71
2022/12/27 09:05:01;;;;;;;2.83;1.80;;;18.50;97.20;;;;;;1707303;28;20202;-71
2022/12/27 09:05:53;;;;;;;2.97;2.08;;;18.70;97.20;;;;;;1707348;28;20203;-71
2022/12/27 09:06:44;;;;;;;3.38;2.30;;;19.00;97.20;;;;;;1706694;28;20210;-71
2022/12/27 09:07:35;;;;;;;2.50;1.90;;;19.50;97.20;;;;;;1707317;28;20245;-72
2022/12/27 09:08:27;;;;;;;3.00;2.30;;;20.10;97.20;;;;;;1707148;28;20548;-71
2022/12/27 09:09:18;;;;;;;3.55;2.17;;;20.80;97.20;;;;;;1707287;28;20210;-71
2022/12/27 09:10:09;;;;;;;3.63;2.43;;;21.50;97.20;;;;;;1715679;28;20221;-72
2022/12/27 09:11:07;;;;;;;2.90;2.00;;;22.00;97.20;;;;;;1720395;28;20228;-72
2022/12/27 09:11:59;;;;;;;3.80;2.40;;;22.70;97.20;;;;;;1720641;28;20201;-72
2022/12/27 09:12:50;;;;;;;4.88;3.13;;;23.20;97.20;;;;;;1720555;28;20205;-72
2022/12/27 09:13:42;;;;;;;9.70;5.45;;;23.70;97.20;;;;;;1720486;28;20205;-72
2022/12/27 09:14:32;;;;;;;9.43;5.93;;;24.00;96.90;;;;;;1720673;28;20209;-71
2022/12/27 09:15:24;;;;;;;6.17;4.77;;;24.40;96.00;;;;;;1720545;28;20197;-72
2022/12/27 09:16:17;;;;;;;8.90;5.35;;;24.60;94.50;;;;;;1720589;28;20950;-72
2022/12/27 09:17:09;;;;;;;6.70;4.68;;;24.90;94.20;;;;;;1719924;28;20247;-72
2022/12/27 09:18:01;;;;;;;8.70;6.30;;;25.20;93.60;;;;;;1720554;28;20971;-72
2022/12/27 09:18:56;;;;;;;5.95;4.93;;;25.50;92.30;;;;;;1720636;28;20211;-72
2022/12/27 09:19:47;;;;;;;5.40;3.60;;;25.70;91.90;;;;;;1720661;28;20723;-72
2022/12/27 09:20:38;;;;;;;5.53;3.20;;;26.00;91.40;;;;;;1720501;28;20612;-72
2022/12/27 09:21:32;;;;;;;4.03;3.00;;;26.30;91.20;;;;;;1720664;28;20211;-72
2022/12/27 09:22:24;;;;;;;2.72;2.30;;;26.60;90.40;;;;;;1720490;28;20197;-72
2022/12/27 09:23:15;;;;;;;3.22;2.05;;;26.90;89.80;;;;;;1720579;28;20197;-72
2022/12/27 09:24:09;;;;;;;4.00;2.20;;;27.20;88.80;;;;;;1720628;28;20663;-72
2022/12/27 09:25:00;;;;;;;2.40;1.85;;;27.30;88.20;;;;;;1720539;28;20201;-72
2022/12/27 09:25:52;;;;;;;2.70;1.57;;;27.50;87.50;;;;;;1720622;28;20205;-72
2022/12/27 09:26:44;;;;;;;2.15;1.73;;;27.30;86.80;;;;;;1718058;28;20229;-72
2022/12/27 09:27:35;;;;;;;3.10;1.80;;;27.20;86.60;;;;;;1720516;28;20205;-72
2022/12/27 09:28:28;;;;;;;1.98;1.77;;;27.10;86.60;;;;;;1720383;28;20627;-72
2022/12/27 09:29:18;;;;;;;3.88;1.85;;;27.00;87.00;;;;;;1720575;28;20212;-72
2022/12/27 09:30:11;;;;;;;3.53;1.77;;;26.90;87.10;;;;;;1720595;28;20229;-72
2022/12/27 09:31:02;;;;;;;2.30;1.73;;;26.90;86.90;;;;;;1720349;28;20212;-72
2022/12/27 09:31:53;;;;;;;2.25;1.70;;;27.00;86.80;;;;;;1720543;28;20215;-72
2022/12/27 09:32:44;;;;;;;2.35;1.83;;;27.20;86.50;;;;;;1720491;28;20224;-72
2022/12/27 09:33:36;;;;;;;3.00;1.70;;;27.30;85.60;;;;;;1720660;28;20211;-72
2022/12/27 09:34:27;;;;;;;2.25;1.55;;;27.70;85.60;;;;;;1720667;28;20663;-72
2022/12/27 09:35:18;;;;;;;2.03;1.70;;;28.10;85.10;;;;;;1720500;28;20658;-72
2022/12/27 09:36:11;;;;;;;3.17;1.90;;;28.40;84.10;;;;;;1720615;28;20212;-72
2022/12/27 09:37:04;;;;;;;2.55;1.40;;;28.60;83.80;;;;;;1719741;28;20615;-72
2022/12/27 09:37:56;;;;;;;3.00;1.55;;;28.80;83.30;;;;;;1720480;28;20725;-72
2022/12/27 09:38:48;;;;;;;2.85;1.55;;;28.90;82.90;;;;;;1720227;28;20201;-72
2022/12/27 09:39:39;;;;;;;2.95;1.50;;;29.00;82.70;;;;;;1720547;28;20215;-72
2022/12/27 09:40:31;;;;;;;1.93;1.50;;;29.00;82.00;;;;;;1720567;28;20239;-72
2022/12/27 09:41:35;;;;;;;4.03;1.60;;;28.90;82.20;;;;;;1720428;28;20233;-72
2022/12/27 09:42:44;;;;;;;2.45;1.73;;;28.40;81.40;;;;;;1720507;28;20389;-72
2022/12/27 09:43:42;;;;;;;4.13;2.00;;;27.70;82.10;;;;;;1718809;28;20201;-72
2022/12/27 09:44:43;;;;;;;2.95;1.50;;;27.30;82.60;;;;;;1720647;28;20208;-72
2022/12/27 09:45:39;;;;;;;3.35;1.80;;;26.80;83.00;;;;;;1720578;28;20213;-72
2022/12/27 09:46:37;;;;;;;1.90;1.70;;;26.40;83.70;;;;;;1720749;28;20189;-72
2022/12/27 09:47:37;;;;;;;2.80;1.60;;;26.10;84.70;;;;;;1720499;28;20561;-72
2022/12/27 09:48:32;;;;;;;2.22;1.50;;;26.00;85.20;;;;;;1720422;28;20201;-72
2022/12/27 09:49:30;;;;;;;2.17;1.42;;;26.10;85.30;;;;;;1720303;28;20205;-73
2022/12/27 09:50:29;;;;;;;2.05;1.50;;;26.20;85.10;;;;;;1720235;28;20229;-72
2022/12/27 09:51:25;;;;;;;2.40;1.85;;;26.50;84.90;;;;;;1720379;28;20224;-72
2022/12/27 09:52:22;;;;;;;5.38;2.00;;;26.80;84.40;;;;;;1713966;28;20256;-72
2022/12/27 09:53:16;;;;;;;2.75;1.73;;;27.10;84.00;;;;;;1713865;28;20198;-72
2022/12/27 09:54:13;;;;;;;2.97;1.70;;;27.40;83.30;;;;;;1718908;28;20248;-72
2022/12/27 09:55:09;;;;;;;2.42;1.80;;;27.50;83.10;;;;;;1720422;28;20201;-72
2022/12/27 09:56:01;;;;;;;2.38;1.50;;;27.50;82.80;;;;;;1719756;28;20197;-72
2022/12/27 09:56:52;;;;;;;2.55;1.65;;;27.70;82.30;;;;;;1719736;28;20209;-72
2022/12/27 09:57:46;;;;;;;7.03;2.30;;;27.90;82.50;;;;;;1720365;28;20197;-72
2022/12/27 09:58:43;;;;;;;2.45;1.83;;;28.00;81.70;;;;;;1720373;28;20828;-72
2022/12/27 09:59:42;;;;;;;2.20;1.30;;;28.20;81.90;;;;;;1714658;28;20206;-72
2022/12/27 10:00:33;;;;;;;4.55;1.80;;;28.40;81.50;;;;;;1713840;28;20226;-72
2022/12/27 10:01:31;;;;;;;6.07;1.23;;;28.70;80.90;;;;;;1714268;28;20221;-72
2022/12/27 10:02:24;;;;;;;2.78;1.63;;;28.80;80.70;;;;;;1715103;28;20445;-72
2022/12/27 10:03:18;;;;;;;2.20;1.40;;;28.80;79.90;;;;;;1715173;28;20233;-72
2022/12/27 10:04:11;;;;;;;2.42;1.50;;;28.90;79.80;;;;;;1715230;28;20259;-72
2022/12/27 10:05:04;;;;;;;2.58;1.95;;;29.00;79.70;;;;;;1715087;28;20643;-72
2022/12/27 10:06:00;;;;;;;2.50;1.73;;;29.30;79.50;;;;;;1715513;28;20209;-72
2022/12/27 10:07:06;;;;;;;2.65;1.60;;;29.60;79.20;;;;;;1719319;28;20255;-72
2022/12/27 10:08:18;;;;;;;2.80;1.90;;;30.00;78.30;;;;;;1721069;28;20193;-72
2022/12/27 10:09:27;;;;;;;2.05;1.48;;;30.40;77.70;;;;;;1721656;28;20557;-72
2022/12/27 10:10:26;;;;;;;2.97;1.45;;;30.40;77.50;;;;;;1721705;28;20201;-73
2022/12/27 10:11:37;;;;;;;2.03;1.17;;;30.60;76.90;;;;;;1721861;28;20208;-72
2022/12/27 10:12:52;;;;;;;2.28;1.38;;;30.70;76.50;;;;;;1721751;28;20205;-73
2022/12/27 10:13:53;;;;;;;2.88;1.50;;;30.90;75.20;;;;;;1721940;28;20204;-72
2022/12/27 10:14:57;;;;;;;1.75;1.45;;;31.10;75.40;;;;;;1721719;28;20258;-73
2022/12/27 10:15:54;;;;;;;1.52;1.42;;;31.20;75.20;;;;;;1721344;28;20683;-73
2022/12/27 10:16:54;;;;;;;2.65;1.50;;;31.40;75.10;;;;;;1720656;28;20196;-73
2022/12/27 10:17:56;;;;;;;3.13;1.50;;;31.50;74.30;;;;;;1721766;28;20193;-72
2022/12/27 10:19:02;;;;;;;1.85;1.10;;;31.30;74.40;;;;;;1721851;28;20196;-72
2022/12/27 10:20:07;;;;;;;2.47;1.70;;;31.10;74.30;;;;;;1721786;28;20205;-72
2022/12/27 10:21:05;;;;;;;2.25;1.20;;;30.70;73.90;;;;;;1721628;28;20229;-73
2022/12/27 10:22:08;;;;;;;1.58;1.20;;;30.20;75.00;;;;;;1721696;28;20742;-72
2022/12/27 10:23:03;;;;;;;2.33;1.67;;;30.00;75.60;;;;;;1720089;28;20703;-73
2022/12/27 10:23:57;;;;;;;3.67;2.10;;;29.80;75.60;;;;;;1721726;28;20281;-73
2022/12/27 10:24:51;;;;;;;2.80;1.85;;;29.60;75.40;;;;;;1721765;28;20205;-72
2022/12/27 10:25:45;;;;;;;2.92;1.33;;;29.50;75.80;;;;;;1721587;28;20223;-73
2022/12/27 10:26:37;;;;;;;2.08;1.45;;;29.50;75.20;;;;;;1721617;28;20224;-72
2022/12/27 10:27:30;;;;;;;3.65;1.50;;;29.50;75.30;;;;;;1721629;28;20197;-73
2022/12/27 10:28:24;;;;;;;2.05;1.30;;;29.60;75.90;;;;;;1721446;28;20204;-72
2022/12/27 10:29:20;;;;;;;2.20;1.20;;;29.90;75.70;;;;;;1721803;28;20201;-72
2022/12/27 10:30:15;;;;;;;5.10;1.75;;;30.00;75.20;;;;;;1721755;28;20572;-72
2022/12/27 10:31:11;;;;;;;2.25;1.52;;;30.20;74.60;;;;;;1721643;28;20687;-73
2022/12/27 10:32:03;;;;;;;2.60;1.80;;;30.30;74.40;;;;;;1721762;28;20201;-73
2022/12/27 10:32:54;;;;;;;2.13;1.42;;;30.40;73.70;;;;;;1721721;28;20228;-73
2022/12/27 10:33:46;;;;;;;2.03;1.60;;;30.80;74.30;;;;;;1721724;28;20213;-72
2022/12/27 10:34:38;;;;;;;2.60;1.80;;;31.20;73.20;;;;;;1721646;28;20242;-72
2022/12/27 10:35:29;;;;;;;1.75;1.50;;;31.60;72.80;;;;;;1721940;28;20201;-71
2022/12/27 10:36:24;;;;;;;2.60;1.60;;;32.10;72.20;;;;;;1721775;28;20207;-71
2022/12/27 10:37:15;;;;;;;2.13;1.48;;;32.50;71.70;;;;;;1721208;28;20444;-71